createdAt,value
2023-01-23T00:01:11.260Z,3.35
2023-01-23T00:03:38.056Z,3.63
2023-01-23T00:06:08.713Z,3.80
2023-01-23T00:08:36.365Z,3.78
2023-01-23T00:11:07.847Z,3.60
2023-01-23T00:13:35.649Z,3.40
2023-01-23T00:16:11.529Z,3.42
2023-01-23T00:18:38.441Z,3.20
2023-01-23T00:21:07.165Z,3.38
2023-01-23T00:23:34.425Z,3.58
2023-01-23T00:26:05.883Z,3.72
2023-01-23T00:28:32.711Z,3.33
2023-01-23T00:31:07.569Z,3.80
2023-01-23T00:33:34.491Z,3.55
2023-01-23T00:36:02.003Z,3.15
2023-01-23T00:38:29.310Z,3.35
2023-01-23T00:40:56.472Z,3.45
2023-01-23T00:43:24.301Z,3.58
2023-01-23T00:45:51.494Z,3.25
2023-01-23T00:48:18.283Z,3.72
2023-01-23T00:50:45.330Z,3.10
2023-01-23T00:53:13.078Z,3.53
2023-01-23T00:55:40.751Z,3.38
2023-01-23T00:58:08.484Z,3.63
2023-01-23T01:00:36.540Z,3.53
2023-01-23T01:03:03.645Z,3.25
2023-01-23T01:05:30.427Z,3.85
2023-01-23T01:07:57.356Z,3.40
2023-01-23T01:10:29.201Z,3.90
2023-01-23T01:13:00.500Z,3.78
2023-01-23T01:15:27.815Z,3.97
2023-01-23T01:17:54.738Z,4.30
2023-01-23T01:20:23.801Z,4.53
2023-01-23T01:22:51.031Z,4.97
2023-01-23T01:25:18.186Z,4.78
2023-01-23T01:27:45.279Z,4.47
2023-01-23T01:30:12.816Z,5.70
2023-01-23T01:32:42.715Z,5.95
2023-01-23T01:35:10.665Z,5.47
2023-01-23T01:37:39.710Z,5.72
2023-01-23T01:40:08.909Z,5.45
2023-01-23T01:42:49.553Z,5.57
2023-01-23T01:45:54.165Z,5.57
2023-01-23T01:48:24.531Z,5.82
2023-01-23T01:50:52.510Z,5.95
2023-01-23T01:53:21.768Z,5.88
2023-01-23T01:55:49.098Z,5.75
2023-01-23T01:58:18.305Z,5.82
2023-01-23T02:00:45.214Z,6.18
2023-01-23T02:03:12.140Z,5.72
2023-01-23T02:05:44.835Z,5.88
2023-01-23T02:08:30.205Z,5.78
2023-01-23T02:10:57.089Z,5.57
2023-01-23T02:13:28.358Z,5.43
2023-01-23T02:15:55.450Z,6.03
2023-01-23T02:18:22.711Z,6.20
2023-01-23T02:20:52.503Z,6.50
2023-01-23T02:23:37.166Z,5.47
2023-01-23T02:26:27.415Z,5.57
2023-01-23T02:28:55.350Z,5.32
2023-01-23T02:31:23.166Z,5.57
2023-01-23T02:33:51.363Z,5.75
2023-01-23T02:36:22.142Z,5.65
2023-01-23T02:39:08.371Z,5.78
2023-01-23T02:41:44.329Z,6.15
2023-01-23T02:44:31.912Z,6.35
2023-01-23T02:47:03.963Z,5.80
2023-01-23T02:49:31.426Z,6.10
2023-01-23T02:51:58.521Z,6.18
2023-01-23T02:54:25.791Z,5.75
2023-01-23T02:56:52.654Z,5.53
2023-01-23T02:59:38.144Z,5.53
2023-01-23T03:02:06.207Z,6.15
2023-01-23T03:04:33.102Z,5.53
2023-01-23T03:06:59.941Z,5.70
2023-01-23T03:09:27.058Z,6.38
2023-01-23T03:11:54.058Z,5.85
2023-01-23T03:14:23.076Z,6.70
2023-01-23T03:16:53.626Z,6.93
2023-01-23T03:19:23.237Z,7.15
2023-01-23T03:21:51.060Z,6.88
2023-01-23T03:24:18.330Z,6.90
2023-01-23T03:26:47.008Z,7.20
2023-01-23T03:29:35.370Z,7.05
2023-01-23T03:32:02.234Z,7.43
2023-01-23T03:34:29.696Z,8.68
2023-01-23T03:36:56.497Z,7.95
2023-01-23T03:39:42.108Z,8.23
2023-01-23T03:42:09.192Z,7.80
2023-01-23T03:44:36.179Z,7.50
2023-01-23T03:47:03.073Z,7.53
2023-01-23T03:49:30.042Z,8.43
2023-01-23T03:51:56.908Z,7.72
2023-01-23T03:54:23.728Z,7.32
2023-01-23T03:56:50.553Z,8.18
2023-01-23T03:59:17.294Z,7.57
2023-01-23T04:01:44.531Z,7.80
2023-01-23T04:04:11.338Z,7.80
2023-01-23T04:06:38.117Z,7.63
2023-01-23T04:09:05.115Z,7.70
2023-01-23T04:11:32.085Z,7.28
2023-01-23T04:13:58.869Z,8.38
2023-01-23T04:16:27.569Z,8.35
2023-01-23T04:18:54.566Z,8.60
2023-01-23T04:21:21.661Z,8.30
2023-01-23T04:23:48.500Z,8.82
2023-01-23T04:26:15.278Z,9.15
2023-01-23T04:28:42.127Z,9.45
2023-01-23T04:31:09.775Z,9.30
2023-01-23T04:33:36.687Z,9.07
2023-01-23T04:36:05.525Z,9.43
2023-01-23T04:38:33.540Z,9.15
2023-01-23T04:41:00.746Z,8.85
2023-01-23T04:43:27.502Z,9.13
2023-01-23T04:45:55.566Z,8.65
2023-01-23T04:48:24.948Z,9.25
2023-01-23T04:50:52.495Z,8.95
2023-01-23T04:53:19.852Z,9.07
2023-01-23T04:55:49.045Z,8.80
2023-01-23T04:58:16.881Z,8.63
2023-01-23T05:00:43.620Z,8.13
2023-01-23T05:03:10.467Z,8.13
2023-01-23T05:05:37.405Z,8.18
2023-01-23T05:08:05.776Z,8.25
2023-01-23T05:10:32.625Z,8.80
2023-01-23T05:12:59.393Z,7.80
2023-01-23T05:15:26.318Z,8.20
2023-01-23T05:17:53.094Z,7.57
2023-01-23T05:20:20.685Z,8.02
2023-01-23T05:22:53.397Z,8.52
2023-01-23T05:25:25.374Z,8.00
2023-01-23T05:27:52.684Z,7.68
2023-01-23T05:30:22.514Z,7.72
2023-01-23T05:32:49.512Z,8.00
2023-01-23T05:35:16.642Z,8.18
2023-01-23T05:37:43.445Z,8.27
2023-01-23T05:40:13.265Z,7.82
2023-01-23T05:42:40.170Z,8.02
2023-01-23T05:45:07.564Z,8.57
2023-01-23T05:47:34.423Z,8.05
2023-01-23T05:50:01.217Z,7.85
2023-01-23T05:52:28.269Z,8.05
2023-01-23T05:54:55.143Z,7.35
2023-01-23T05:57:22.230Z,7.93
2023-01-23T05:59:49.045Z,8.05
2023-01-23T06:02:16.230Z,8.20
2023-01-23T06:04:43.020Z,8.65
2023-01-23T06:07:14.186Z,8.55
2023-01-23T06:09:41.144Z,8.40
2023-01-23T06:12:08.975Z,7.63
2023-01-23T06:14:36.118Z,8.15
2023-01-23T06:17:03.399Z,8.43
2023-01-23T06:19:30.215Z,9.45
2023-01-23T06:21:57.970Z,8.73
2023-01-23T06:24:24.869Z,8.20
2023-01-23T06:26:51.681Z,8.52
2023-01-23T06:29:18.500Z,8.52
2023-01-23T06:31:46.885Z,8.05
2023-01-23T06:34:14.847Z,8.57
2023-01-23T06:36:42.211Z,8.18
2023-01-23T06:39:12.180Z,8.23
2023-01-23T06:41:39.157Z,7.85
2023-01-23T06:44:06.468Z,7.90
2023-01-23T06:46:33.517Z,8.13
2023-01-23T06:49:00.273Z,7.65
2023-01-23T06:51:27.129Z,8.63
2023-01-23T06:53:54.658Z,8.80
2023-01-23T06:56:21.577Z,8.75
2023-01-23T06:58:48.793Z,8.82
2023-01-23T07:01:17.725Z,9.52
2023-01-23T07:03:45.177Z,9.43
2023-01-23T07:06:14.185Z,10.05
2023-01-23T07:08:42.180Z,9.00
2023-01-23T07:11:09.649Z,9.77
2023-01-23T07:13:36.540Z,9.35
2023-01-23T07:16:03.623Z,10.05
2023-01-23T07:18:30.670Z,9.57
2023-01-23T07:20:58.146Z,9.02
2023-01-23T07:23:24.976Z,9.00
2023-01-23T07:25:52.171Z,8.70
2023-01-23T07:28:18.948Z,8.52
2023-01-23T07:30:47.044Z,9.25
2023-01-23T07:33:13.834Z,9.43
2023-01-23T07:35:41.124Z,9.40
2023-01-23T07:38:07.912Z,8.75
2023-01-23T07:40:34.706Z,8.23
2023-01-23T07:43:01.478Z,9.18
2023-01-23T07:45:28.478Z,8.65
2023-01-23T07:47:55.345Z,8.35
2023-01-23T07:50:22.521Z,8.63
2023-01-23T07:52:49.500Z,8.50
2023-01-23T07:55:16.922Z,9.27
2023-01-23T07:57:43.857Z,8.63
2023-01-23T08:00:11.086Z,8.70
2023-01-23T08:02:38.388Z,8.80
2023-01-23T08:05:06.108Z,8.68
2023-01-23T08:07:32.904Z,9.43
2023-01-23T08:09:59.674Z,8.85
2023-01-23T08:12:26.516Z,8.60
2023-01-23T08:14:53.362Z,8.80
2023-01-23T08:17:21.077Z,8.35
2023-01-23T08:19:49.153Z,8.52
2023-01-23T08:22:15.981Z,8.88
2023-01-23T08:24:43.682Z,8.75
2023-01-23T08:27:12.294Z,7.85
2023-01-23T08:29:39.060Z,8.80
2023-01-23T08:32:06.064Z,7.75
2023-01-23T08:34:32.932Z,7.95
2023-01-23T08:36:59.713Z,7.57
2023-01-23T08:39:26.527Z,8.60
2023-01-23T08:41:55.240Z,7.25
2023-01-23T08:44:23.561Z,7.53
2023-01-23T08:46:50.572Z,7.35
2023-01-23T08:49:20.217Z,7.75
2023-01-23T08:51:47.194Z,7.57
2023-01-23T08:54:13.964Z,7.28
2023-01-23T08:56:41.266Z,7.43
2023-01-23T08:59:08.993Z,7.30
2023-01-23T09:01:36.104Z,7.57
2023-01-23T09:04:03.175Z,7.25
2023-01-23T09:06:29.978Z,7.25
2023-01-23T09:08:56.988Z,7.05
2023-01-23T09:11:23.995Z,6.75
2023-01-23T09:13:53.737Z,6.50
2023-01-23T09:16:20.930Z,7.22
2023-01-23T09:18:48.147Z,6.65
2023-01-23T09:21:16.880Z,7.10
2023-01-23T09:23:43.768Z,7.07
2023-01-23T09:26:12.869Z,6.72
2023-01-23T09:28:42.625Z,6.65
2023-01-23T09:31:14.026Z,7.40
2023-01-23T09:33:41.582Z,7.35
2023-01-23T09:36:09.354Z,6.50
2023-01-23T09:38:36.838Z,7.28
2023-01-23T09:41:20.209Z,7.05
2023-01-23T09:43:57.850Z,6.50
2023-01-23T09:46:41.707Z,6.78
2023-01-23T09:49:25.167Z,6.32
2023-01-23T09:52:02.814Z,6.63
2023-01-23T09:54:50.384Z,7.32
2023-01-23T09:57:24.776Z,6.63
2023-01-23T10:00:00.337Z,7.25
2023-01-23T10:02:29.345Z,7.20
2023-01-23T10:04:58.270Z,6.93
2023-01-23T10:07:44.505Z,7.18
2023-01-23T10:10:20.204Z,6.15
2023-01-23T10:13:02.966Z,6.70
2023-01-23T10:15:57.436Z,7.22
2023-01-23T10:18:36.202Z,6.75
2023-01-23T10:21:06.106Z,7.25
2023-01-23T10:23:35.922Z,6.55
2023-01-23T10:26:04.303Z,6.47
2023-01-23T10:28:39.348Z,6.80
2023-01-23T10:31:25.027Z,6.28
2023-01-23T10:34:22.062Z,5.85
2023-01-23T10:37:17.929Z,6.72
2023-01-23T10:39:48.786Z,6.28
2023-01-23T10:42:19.483Z,6.38
2023-01-23T10:44:46.251Z,6.60
2023-01-23T10:47:38.828Z,6.47
2023-01-23T10:50:07.623Z,6.78
2023-01-23T10:52:37.557Z,6.15
2023-01-23T10:55:24.464Z,6.20
2023-01-23T10:57:55.728Z,6.18
2023-01-23T11:00:33.935Z,6.07
2023-01-23T11:03:22.684Z,6.18
2023-01-23T11:05:53.543Z,6.88
2023-01-23T11:08:32.409Z,6.18
2023-01-23T11:11:32.812Z,5.55
2023-01-23T11:14:16.688Z,5.88
2023-01-23T11:16:44.147Z,5.90
2023-01-23T11:19:18.359Z,5.70
2023-01-23T11:21:58.164Z,5.95
2023-01-23T11:24:38.584Z,6.25
2023-01-23T11:27:17.781Z,6.35
2023-01-23T11:30:16.800Z,5.65
2023-01-23T11:32:58.549Z,6.00
2023-01-23T11:35:48.902Z,6.07
2023-01-23T11:38:27.271Z,5.80
2023-01-23T11:40:54.692Z,6.00
2023-01-23T11:43:21.551Z,6.32
2023-01-23T11:46:07.169Z,6.18
2023-01-23T11:48:36.680Z,5.65
2023-01-23T11:51:30.164Z,6.03
2023-01-23T11:54:08.368Z,6.05
2023-01-23T11:56:53.507Z,5.72
2023-01-23T11:59:49.263Z,5.30
2023-01-23T12:02:15.962Z,5.85
2023-01-23T12:05:06.379Z,6.28
2023-01-23T12:07:47.012Z,6.32
2023-01-23T12:10:28.439Z,6.20
2023-01-23T12:13:19.909Z,5.47
2023-01-23T12:16:04.939Z,5.68
2023-01-23T12:18:53.354Z,5.43
2023-01-23T12:21:30.754Z,4.90
2023-01-23T12:24:22.787Z,4.90
2023-01-23T12:27:16.896Z,4.70
2023-01-23T12:29:46.686Z,4.53
2023-01-23T12:32:40.150Z,4.55
2023-01-23T12:35:25.701Z,4.30
2023-01-23T12:38:22.545Z,5.05
2023-01-23T12:41:13.338Z,4.10
2023-01-23T12:43:57.205Z,4.45
2023-01-23T12:46:36.678Z,4.10
2023-01-23T12:49:10.175Z,3.95
2023-01-23T12:51:40.784Z,3.88
2023-01-23T12:54:16.284Z,4.15
2023-01-23T12:56:46.168Z,3.70
2023-01-23T12:59:32.105Z,3.80
2023-01-23T13:02:09.319Z,3.88
2023-01-23T13:07:22.864Z,3.92
2023-01-23T13:10:14.389Z,3.90
2023-01-23T13:12:41.366Z,4.22
2023-01-23T13:15:19.135Z,4.35
2023-01-23T13:17:58.012Z,4.07
2023-01-23T13:21:12.422Z,4.40
2023-01-23T13:23:39.699Z,4.05
2023-01-23T13:26:12.493Z,4.38
2023-01-23T13:28:47.887Z,4.38
2023-01-23T13:31:36.662Z,4.32
2023-01-23T13:34:25.743Z,5.03
2023-01-23T13:36:53.752Z,4.72
2023-01-23T13:39:23.637Z,4.38
2023-01-23T13:41:53.086Z,4.80
2023-01-23T13:44:40.361Z,4.68
2023-01-23T14:22:07.950Z,5.00
2023-01-23T14:24:47.033Z,5.95
2023-01-23T14:27:29.412Z,5.57
2023-01-23T14:30:12.192Z,5.97
2023-01-23T14:32:39.066Z,6.32
2023-01-23T14:35:29.373Z,6.32
2023-01-23T14:37:59.855Z,6.05
2023-01-23T14:40:29.805Z,6.15
2023-01-23T14:43:12.391Z,6.00
2023-01-23T14:45:39.876Z,6.43
2023-01-23T14:48:14.074Z,6.43
2023-01-23T14:50:41.203Z,6.75
2023-01-23T14:53:14.859Z,6.00
2023-01-23T14:55:46.175Z,6.68
2023-01-23T14:58:22.921Z,6.03
2023-01-23T15:00:51.898Z,6.60
2023-01-23T15:03:35.385Z,7.20
2023-01-23T15:06:05.869Z,6.47
2023-01-23T15:08:34.795Z,7.05
2023-01-23T15:11:03.088Z,7.25
2023-01-23T15:13:37.093Z,6.25
2023-01-23T15:16:06.967Z,6.55
2023-01-23T15:18:35.653Z,6.97
2023-01-23T15:21:03.026Z,6.10
2023-01-23T15:23:37.849Z,7.00
2023-01-23T15:26:19.605Z,6.88
2023-01-23T15:28:54.924Z,6.93
2023-01-23T15:31:42.713Z,6.32
2023-01-23T15:34:16.351Z,6.68
2023-01-23T15:37:10.001Z,7.05
2023-01-23T15:39:49.733Z,6.65
2023-01-23T15:42:17.405Z,5.90
2023-01-23T15:44:45.112Z,6.57
2023-01-23T15:47:12.843Z,5.45
2023-01-23T15:49:40.712Z,6.28
2023-01-23T15:52:27.400Z,6.18
2023-01-23T15:55:02.837Z,5.90
2023-01-23T16:00:01.256Z,6.13
2023-01-23T16:02:33.125Z,5.93
2023-01-23T16:05:03.446Z,5.85
2023-01-23T16:07:37.401Z,6.13
2023-01-23T16:10:17.801Z,5.90
2023-01-23T16:12:48.843Z,5.55
2023-01-23T16:15:18.918Z,5.82
2023-01-23T16:17:47.043Z,6.35
2023-01-23T16:20:18.471Z,6.15
2023-01-23T16:22:49.009Z,6.70
2023-01-23T16:25:43.102Z,6.70
2023-01-23T16:28:14.059Z,6.93
2023-01-23T16:30:42.500Z,7.15
2023-01-23T16:33:11.489Z,6.72
2023-01-23T16:35:38.593Z,6.70
2023-01-23T16:38:06.849Z,6.95
2023-01-23T16:40:34.519Z,7.05
2023-01-23T16:43:03.001Z,7.28
2023-01-23T16:45:32.112Z,6.70
2023-01-23T16:48:00.580Z,7.13
2023-01-23T16:50:37.180Z,6.82
2023-01-23T16:53:28.748Z,7.18
2023-01-23T16:55:59.168Z,7.20
2023-01-23T16:58:34.609Z,7.53
2023-01-23T17:01:04.439Z,7.10
2023-01-23T17:03:35.181Z,7.35
2023-01-23T17:06:02.754Z,6.70
2023-01-23T17:08:29.953Z,6.97
2023-01-23T17:11:02.701Z,6.28
2023-01-23T17:13:33.502Z,6.63
2023-01-23T17:16:02.571Z,6.70
2023-01-23T17:18:33.530Z,6.70
2023-01-23T17:21:00.770Z,6.53
2023-01-23T17:23:27.538Z,6.97
2023-01-23T17:26:00.806Z,6.55
2023-01-23T17:28:29.027Z,6.10
2023-01-23T17:31:00.335Z,6.40
2023-01-23T17:33:31.645Z,6.38
2023-01-23T17:36:00.787Z,6.32
2023-01-23T17:38:34.366Z,6.10
2023-01-23T17:41:02.090Z,7.18
2023-01-23T17:43:29.688Z,6.50
2023-01-23T17:45:56.750Z,6.50
2023-01-23T17:48:27.581Z,7.20
2023-01-23T17:50:54.787Z,7.00
2023-01-23T17:53:23.745Z,7.32
2023-01-23T17:55:52.618Z,7.05
2023-01-23T17:58:20.613Z,7.20
2023-01-23T18:00:51.011Z,6.75
2023-01-23T18:03:22.088Z,7.72
2023-01-23T18:05:49.066Z,7.07
2023-01-23T18:08:18.150Z,7.70
2023-01-23T18:10:47.630Z,7.72
2023-01-23T18:13:26.688Z,7.30
2023-01-23T18:15:56.689Z,7.95
2023-01-23T18:18:31.955Z,6.95
2023-01-23T18:21:02.402Z,7.35
2023-01-23T18:23:32.004Z,7.45
2023-01-23T18:26:14.513Z,7.43
2023-01-23T18:28:56.996Z,7.22
2023-01-23T18:31:40.474Z,7.68
2023-01-23T18:34:35.973Z,8.20
2023-01-23T18:37:15.782Z,7.95
2023-01-23T18:40:01.670Z,7.63
2023-01-23T18:45:11.275Z,8.05
2023-01-23T18:47:38.336Z,8.35
2023-01-23T18:50:06.724Z,8.27
2023-01-23T18:52:53.970Z,7.60
2023-01-23T18:55:32.801Z,7.78
2023-01-23T18:58:17.334Z,7.85
2023-01-23T19:00:52.421Z,7.50
2023-01-23T19:03:22.147Z,7.28
2023-01-23T19:05:49.124Z,7.68
2023-01-23T19:08:32.536Z,7.38
2023-01-23T19:11:07.039Z,7.28
2023-01-23T19:13:44.167Z,7.50
2023-01-23T19:16:41.745Z,7.22
2023-01-23T19:19:37.637Z,6.85
2023-01-23T19:22:11.786Z,6.47
2023-01-23T19:24:38.904Z,6.97
2023-01-23T19:27:20.599Z,7.18
2023-01-23T19:29:47.574Z,6.97
2023-01-23T19:32:14.917Z,6.50
2023-01-23T19:34:43.001Z,6.50
2023-01-23T19:37:10.065Z,6.57
2023-01-23T19:39:36.944Z,6.18
2023-01-23T19:42:04.223Z,6.32
2023-01-23T19:44:31.093Z,6.00
2023-01-23T19:46:58.084Z,6.43
2023-01-23T19:49:25.510Z,6.15
2023-01-23T19:51:52.753Z,6.90
2023-01-23T19:54:21.224Z,6.60
2023-01-23T19:56:49.979Z,5.95
2023-01-23T19:59:16.854Z,6.05
2023-01-23T20:01:48.423Z,6.32
2023-01-23T20:04:23.480Z,6.50
2023-01-23T20:06:51.830Z,6.18
2023-01-23T20:09:19.191Z,5.88
2023-01-23T20:11:47.090Z,6.07
2023-01-23T20:14:14.647Z,5.60
2023-01-23T20:16:43.012Z,5.68
2023-01-23T20:19:14.978Z,5.72
2023-01-23T20:21:42.383Z,5.43
2023-01-23T20:24:09.496Z,5.88
2023-01-23T20:26:36.881Z,5.28
2023-01-23T20:29:04.640Z,5.65
2023-01-23T20:31:32.243Z,6.25
2023-01-23T20:33:59.782Z,5.40
2023-01-23T20:36:26.831Z,6.40
2023-01-23T20:38:53.813Z,5.97
2023-01-23T20:41:21.388Z,5.93
2023-01-23T20:43:48.890Z,5.65
2023-01-23T20:46:17.020Z,5.60
2023-01-23T20:48:45.100Z,5.50
2023-01-23T20:51:13.782Z,5.97
2023-01-23T20:53:41.621Z,5.57
2023-01-23T20:56:14.227Z,5.88
2023-01-23T20:59:02.319Z,5.60
2023-01-23T21:01:52.651Z,6.10
2023-01-23T21:04:20.077Z,6.68
2023-01-23T21:06:46.877Z,6.82
2023-01-23T21:09:13.965Z,5.95
2023-01-23T21:11:40.795Z,6.40
2023-01-23T21:14:08.675Z,5.97
2023-01-23T21:16:35.673Z,6.55
2023-01-23T21:19:02.750Z,5.60
2023-01-23T21:21:29.915Z,6.30
2023-01-23T21:23:57.104Z,5.68
2023-01-23T21:26:26.738Z,5.93
2023-01-23T21:28:55.019Z,5.43
2023-01-23T21:31:25.619Z,5.45
2023-01-23T21:33:52.575Z,6.22
2023-01-23T21:36:22.970Z,5.90
2023-01-23T21:38:51.467Z,5.40
2023-01-23T21:41:19.064Z,6.13
2023-01-23T21:43:45.889Z,5.60
2023-01-23T21:46:12.761Z,5.57
2023-01-23T21:48:39.565Z,5.78
2023-01-23T21:51:18.547Z,5.55
2023-01-23T21:53:47.780Z,6.18
2023-01-23T21:56:16.897Z,5.85
2023-01-23T21:58:44.486Z,6.05
2023-01-23T22:01:34.835Z,6.20
2023-01-23T22:04:16.497Z,6.22
2023-01-23T22:06:44.376Z,6.20
2023-01-23T22:09:16.209Z,6.60
2023-01-23T22:11:43.610Z,6.63
2023-01-23T22:14:10.693Z,5.85
2023-01-23T22:16:48.487Z,6.82
2023-01-23T22:19:19.157Z,6.18
2023-01-23T22:21:46.667Z,6.68
2023-01-23T22:24:14.836Z,6.90
2023-01-23T22:26:42.164Z,6.22
2023-01-23T22:29:09.226Z,6.18
2023-01-23T22:31:36.228Z,6.50
2023-01-23T22:34:03.114Z,6.40
2023-01-23T22:36:30.046Z,5.97
2023-01-23T22:38:57.163Z,6.10
2023-01-23T22:41:24.128Z,6.18
2023-01-23T22:43:54.696Z,6.68
2023-01-23T22:46:22.535Z,6.40
2023-01-23T22:48:49.535Z,6.65
2023-01-23T22:51:24.489Z,6.88
2023-01-23T22:53:55.814Z,6.13
2023-01-23T22:56:23.726Z,6.03
2023-01-23T22:58:52.515Z,5.90
2023-01-23T23:01:20.529Z,5.57
2023-01-23T23:03:47.336Z,6.30
2023-01-23T23:06:16.026Z,5.93
2023-01-23T23:08:46.340Z,5.68
2023-01-23T23:11:16.784Z,5.60
2023-01-23T23:13:43.884Z,5.78
2023-01-23T23:16:17.827Z,5.97
2023-01-23T23:18:47.055Z,5.70
2023-01-23T23:21:15.780Z,5.47
2023-01-23T23:23:42.916Z,5.18
2023-01-23T23:26:11.193Z,5.20
2023-01-23T23:28:39.062Z,4.90
2023-01-23T23:31:07.736Z,5.43
2023-01-23T23:33:35.122Z,4.95
2023-01-23T23:36:01.889Z,5.38
2023-01-23T23:38:28.995Z,5.47
2023-01-23T23:40:58.404Z,5.75
2023-01-23T23:43:25.944Z,5.47
2023-01-23T23:46:00.864Z,5.07
2023-01-23T23:48:29.252Z,5.50
2023-01-23T23:50:59.032Z,5.25
2023-01-23T23:53:25.901Z,5.45
2023-01-23T23:55:52.774Z,5.05
2023-01-23T23:58:19.522Z,5.70
